Time;durP1;ratioP1;P1;durP2;ratioP2;P2;SDS_P1;SDS_P2;PMS_P1;PMS_P2;Temp;Humidity;BMP_temperature;BMP_pressure;BME280_temperature;BME280_humidity;BME280_pressure;Samples;Min_cycle;Max_cycle;Signal;HPM_P1;HPM_P2
2021/08/19 00:02:48;;;;;;;0.93;0.85;;;17.80;99.90;;;16.59;100.00;100028.91;2629732;38;21213;-81
2021/08/19 00:06:04;;;;;;;1.02;0.93;;;17.00;99.90;;;16.61;100.00;100029.56;2636811;30;20460;-82
2021/08/19 00:09:17;;;;;;;2.03;1.20;;;17.80;99.90;;;16.58;100.00;100019.97;2631449;38;20393;-81
2021/08/19 00:12:30;;;;;;;1.33;0.95;;;17.80;99.90;;;16.55;100.00;100025.81;2621211;30;20222;-81
2021/08/19 00:15:43;;;;;;;2.03;1.33;;;17.80;99.90;;;16.56;100.00;100032.88;2620306;30;20214;-81
2021/08/19 00:18:57;;;;;;;1.33;0.90;;;17.80;99.90;;;16.63;100.00;100030.22;2620298;30;21056;-81
2021/08/19 00:24:52;;;;;;;1.10;0.90;;;17.80;99.90;;;16.65;100.00;100030.84;2622347;38;20589;-82
2021/08/19 00:28:05;;;;;;;2.15;0.95;;;18.60;99.90;;;16.69;100.00;100022.13;2631094;30;20198;-83
2021/08/19 00:31:20;;;;;;;1.30;0.98;;;17.90;99.90;;;16.64;100.00;100027.31;2620857;30;20461;-81
2021/08/19 00:34:34;;;;;;;1.63;0.90;;;17.90;99.90;;;16.64;100.00;100019.22;2633624;30;20206;-82
2021/08/19 00:37:47;;;;;;;0.93;0.60;;;17.90;99.90;;;16.65;100.00;100022.75;2630439;30;20230;-83
2021/08/19 00:41:03;;;;;;;2.47;0.98;;;17.90;99.90;;;16.66;100.00;100013.63;2630798;30;50952;-83
2021/08/19 00:44:17;;;;;;;1.00;0.85;;;17.90;99.90;;;16.58;100.00;100019.97;2640793;38;22131;-82
2021/08/19 00:47:30;;;;;;;3.08;0.88;;;17.90;99.90;;;16.56;100.00;100015.84;2624184;30;25523;-82
2021/08/19 00:50:44;;;;;;;1.17;0.60;;;17.90;99.90;;;16.52;100.00;100020.81;2623850;30;20831;-82
2021/08/19 00:53:57;;;;;;;0.57;0.52;;;17.80;99.90;;;16.52;100.00;100018.94;2645646;38;83238;-82
2021/08/19 00:57:15;;;;;;;1.95;1.25;;;17.80;99.90;;;16.51;100.00;100019.97;2640147;30;84428;-81
2021/08/19 01:00:29;;;;;;;1.05;0.70;;;17.80;99.90;;;16.50;100.00;100017.47;2626471;30;21540;-81
2021/08/19 01:03:42;;;;;;;1.00;0.90;;;18.10;99.90;;;16.45;100.00;100020.78;2630360;38;28766;-84
2021/08/19 01:06:56;;;;;;;1.25;0.68;;;17.80;99.90;;;16.47;100.00;100017.88;2626256;30;20400;-83
2021/08/19 01:10:11;;;;;;;1.70;1.00;;;17.80;99.90;;;16.41;100.00;100024.09;2623494;30;20752;-82
2021/08/19 01:13:28;;;;;;;1.00;0.68;;;17.80;99.90;;;16.43;100.00;100024.75;2623800;30;20217;-84
2021/08/19 01:16:41;;;;;;;2.08;0.55;;;17.80;99.90;;;16.42;100.00;100018.50;2622188;38;20628;-81
2021/08/19 01:19:56;;;;;;;1.75;1.13;;;17.70;99.90;;;16.46;100.00;100038.66;2624474;30;20191;-85
2021/08/19 01:23:10;;;;;;;1.05;0.63;;;17.80;99.90;;;16.48;100.00;100024.94;2627894;30;21368;-84
2021/08/19 01:26:27;;;;;;;1.17;0.68;;;17.70;99.90;;;16.45;100.00;100033.44;2630310;38;20691;-82
2021/08/19 01:29:43;;;;;;;0.88;0.63;;;17.70;99.90;;;16.47;100.00;100031.38;2627146;38;20412;-82
2021/08/19 01:32:56;;;;;;;1.08;0.60;;;17.80;99.90;;;16.46;100.00;100032.41;2627803;30;20210;-82
2021/08/19 01:36:10;;;;;;;0.85;0.70;;;17.70;99.90;;;16.48;100.00;100030.34;2618212;30;20220;-82
2021/08/19 01:39:23;;;;;;;1.38;0.95;;;17.70;99.90;;;16.47;100.00;100021.41;2634273;38;20446;-82
2021/08/19 01:42:36;;;;;;;1.42;1.05;;;17.70;99.90;;;16.48;100.00;100024.94;2632953;38;20953;-83
2021/08/19 01:45:53;;;;;;;1.15;1.02;;;17.70;99.90;;;16.49;100.00;100029.31;2624661;30;20225;-84
2021/08/19 01:49:06;;;;;;;2.38;1.23;;;17.80;99.90;;;16.43;100.00;100024.75;2618415;38;20487;-81
2021/08/19 01:52:20;;;;;;;1.73;1.15;;;17.70;99.90;;;16.43;100.00;100024.75;2624487;38;20258;-82
2021/08/19 01:55:34;;;;;;;1.42;0.98;;;17.50;99.90;;;16.45;100.00;100017.25;2622648;38;20195;-81
2021/08/19 01:58:48;;;;;;;1.20;0.95;;;17.70;99.90;;;16.40;100.00;100019.72;2633019;30;20219;-84
2021/08/19 02:02:04;;;;;;;1.02;0.80;;;17.70;99.90;;;16.39;100.00;100023.47;2620192;38;20206;-82
2021/08/19 02:05:18;;;;;;;1.70;1.02;;;17.70;99.90;;;16.37;100.00;100020.97;2630247;30;20534;-82
2021/08/19 02:08:31;;;;;;;1.30;1.10;;;17.70;99.90;;;16.30;100.00;100016.59;2639585;30;20211;-82
2021/08/19 02:11:45;;;;;;;1.52;1.02;;;18.60;99.90;;;16.30;100.00;100013.88;2630973;30;20411;-82
2021/08/19 02:14:59;;;;;;;1.23;1.13;;;17.60;99.90;;;16.26;100.00;100009.91;2623449;30;20214;-83
2021/08/19 02:18:15;;;;;;;1.77;1.15;;;17.60;99.90;;;16.30;100.00;100005.78;2638063;30;20841;-81
2021/08/19 02:21:29;;;;;;;1.27;1.08;;;17.50;99.90;;;16.22;100.00;100003.25;2637174;30;20268;-83
2021/08/19 02:24:42;;;;;;;1.35;1.10;;;18.10;99.90;;;16.16;100.00;100007.59;2624440;30;20211;-82
2021/08/19 02:27:55;;;;;;;1.58;1.25;;;17.50;99.90;;;16.11;100.00;100005.50;2631093;30;20693;-83
2021/08/19 02:31:09;;;;;;;1.38;0.98;;;17.40;99.90;;;16.08;100.00;100005.03;2631632;38;20873;-83
2021/08/19 02:34:25;;;;;;;1.45;1.30;;;18.10;99.90;;;16.07;100.00;100001.50;2636487;30;20474;-84
2021/08/19 02:37:38;;;;;;;1.42;1.10;;;17.40;99.90;;;16.05;100.00;100010.88;2634107;38;25409;-82
2021/08/19 02:40:52;;;;;;;3.40;1.73;;;17.50;99.90;;;16.19;100.00;100004.50;2655816;30;20206;-83
2021/08/19 02:44:06;;;;;;;1.55;1.35;;;17.40;99.90;;;16.13;100.00;99998.03;2631603;38;20214;-82
2021/08/19 02:47:19;;;;;;;1.65;1.13;;;17.40;99.90;;;16.10;100.00;99997.59;2620508;30;20411;-81
2021/08/19 02:50:36;;;;;;;2.42;1.48;;;17.40;99.90;;;16.08;100.00;99996.94;2633256;30;20737;-83
2021/08/19 02:53:49;;;;;;;1.55;1.42;;;17.40;99.90;;;16.07;100.00;99996.13;2613281;30;20675;-83
2021/08/19 02:57:03;;;;;;;1.73;1.38;;;17.40;99.90;;;15.99;100.00;99996.28;2621989;30;20661;-82
2021/08/19 03:00:17;;;;;;;2.97;1.50;;;17.40;99.90;;;16.01;100.00;99999.63;2630129;30;20513;-82
2021/08/19 03:03:31;;;;;;;1.60;1.30;;;17.30;99.90;;;16.02;100.00;99995.91;2624493;38;20254;-79
2021/08/19 03:06:47;;;;;;;2.40;1.98;;;17.30;99.90;;;15.99;100.00;100003.56;2620858;30;20218;-82
2021/08/19 03:10:00;;;;;;;1.45;1.35;;;17.30;99.90;;;16.00;100.00;99999.81;2632118;38;20222;-81
2021/08/19 03:13:13;;;;;;;2.85;1.73;;;17.30;99.90;;;15.99;100.00;99995.47;2620250;30;20876;-83
2021/08/19 03:16:27;;;;;;;1.98;1.40;;;16.70;99.90;;;15.98;100.00;99994.63;2633796;30;20230;-82
2021/08/19 03:19:41;;;;;;;1.73;1.55;;;17.30;99.90;;;15.96;100.00;99995.84;2626737;30;20684;-79
2021/08/19 03:22:57;;;;;;;1.63;1.27;;;17.30;99.90;;;15.96;100.00;99991.28;2622336;38;20214;-84
2021/08/19 03:26:10;;;;;;;3.13;2.00;;;17.30;99.90;;;16.00;100.00;99991.72;2626710;30;20326;-81
2021/08/19 03:29:23;;;;;;;2.33;1.42;;;17.30;99.90;;;15.94;100.00;99987.97;2623507;30;20480;-84
2021/08/19 03:32:36;;;;;;;2.47;1.88;;;17.30;99.90;;;15.95;100.00;99996.91;2623874;30;20206;-82
2021/08/19 03:35:50;;;;;;;2.10;1.73;;;17.30;99.90;;;15.96;100.00;99996.69;2621737;38;20222;-81
2021/08/19 03:39:07;;;;;;;2.63;1.77;;;17.30;99.90;;;15.92;100.00;99998.13;2613880;30;20455;-83
2021/08/19 03:42:20;;;;;;;4.00;1.70;;;17.30;99.90;;;15.96;100.00;99993.16;2612049;30;20210;-84
2021/08/19 03:45:35;;;;;;;1.90;1.60;;;17.30;99.90;;;15.95;100.00;100002.31;2626169;30;20226;-82
2021/08/19 03:48:48;;;;;;;2.90;2.00;;;17.30;99.90;;;15.96;100.00;99998.53;2621026;30;20194;-82
2021/08/19 03:52:01;;;;;;;1.58;1.42;;;17.30;99.90;;;15.91;100.00;100001.88;2617414;38;20214;-81
2021/08/19 03:55:18;;;;;;;1.90;1.77;;;17.40;99.90;;;15.92;100.00;100002.69;2622496;30;20527;-82
2021/08/19 03:58:31;;;;;;;4.35;1.52;;;17.20;99.90;;;15.95;100.00;100002.31;2625153;30;20539;-83
2021/08/19 04:01:44;;;;;;;2.35;2.05;;;17.20;99.90;;;15.98;100.00;100002.72;2621108;38;20222;-81
2021/08/19 04:04:57;;;;;;;2.38;2.10;;;17.20;99.90;;;16.01;100.00;99996.09;2617304;38;20219;-84
2021/08/19 04:08:11;;;;;;;2.00;1.80;;;18.10;99.90;;;15.95;100.00;100002.31;2620429;30;21502;-82
2021/08/19 04:11:27;;;;;;;2.10;1.60;;;17.30;99.90;;;15.99;100.00;100000.84;2640222;30;20218;-84
2021/08/19 04:14:40;;;;;;;2.40;2.20;;;17.30;99.90;;;15.97;100.00;100003.75;2627778;38;20448;-80
2021/08/19 04:17:55;;;;;;;2.42;2.22;;;17.30;99.90;;;16.01;100.00;99996.94;2636211;38;20406;-83
2021/08/19 04:21:08;;;;;;;2.50;2.25;;;17.20;99.90;;;15.99;100.00;99992.75;2647785;30;21062;-81
2021/08/19 04:24:21;;;;;;;4.47;2.75;;;17.30;99.90;;;16.02;100.00;99989.66;2635758;30;20206;-83
2021/08/19 04:27:37;;;;;;;2.45;1.70;;;17.20;99.90;;;15.95;100.00;99996.91;2629698;38;20446;-84
2021/08/19 04:30:51;;;;;;;4.68;2.03;;;17.20;99.90;;;15.95;100.00;100000.41;2635045;30;20282;-83
2021/08/19 04:34:04;;;;;;;2.47;2.17;;;17.20;99.90;;;15.99;100.00;99995.47;2636816;30;20227;-85
2021/08/19 04:37:17;;;;;;;4.70;2.38;;;17.20;99.90;;;16.01;100.00;100002.31;2631354;30;20736;-83
2021/08/19 04:40:31;;;;;;;2.70;2.30;;;17.30;99.90;;;16.04;100.00;100001.94;2627622;30;20203;-84
2021/08/19 04:43:47;;;;;;;2.42;1.95;;;17.30;99.90;;;16.06;100.00;100001.75;2626035;30;20534;-84
2021/08/19 04:47:01;;;;;;;3.08;2.03;;;17.30;99.90;;;16.04;100.00;100007.34;2643641;38;20214;-82
2021/08/19 04:50:14;;;;;;;2.30;1.88;;;17.40;99.90;;;16.07;100.00;99998.81;2639581;30;20732;-82
2021/08/19 04:52:52;;;;;;;4.32;2.47;;;17.50;99.90;;;16.05;100.00;100000.91;2634578;38;20240;-83
2021/08/19 04:55:21;;;;;;;4.03;2.03;;;17.40;99.90;;;16.08;100.00;99994.25;2629425;30;20237;-82
2021/08/19 04:57:49;;;;;;;2.70;2.13;;;17.40;99.90;;;16.10;100.00;100001.13;2623362;38;20261;-82
2021/08/19 05:00:21;;;;;;;1.92;1.67;;;17.40;99.90;;;16.11;100.00;99999.25;2638476;30;20959;-84
2021/08/19 05:02:50;;;;;;;2.38;1.98;;;17.40;99.90;;;16.16;100.00;99997.63;2620221;30;20329;-82
2021/08/19 05:05:19;;;;;;;3.60;1.98;;;18.10;99.90;;;16.16;100.00;100000.31;2630438;38;20818;-82
2021/08/19 05:07:47;;;;;;;5.63;2.33;;;17.50;99.90;;;16.21;100.00;100002.41;2631130;30;20233;-82
2021/08/19 05:10:16;;;;;;;2.10;1.90;;;17.60;99.90;;;16.23;100.00;99996.81;2634354;31;20222;-84
2021/08/19 05:12:45;;;;;;;3.53;2.22;;;17.50;99.90;;;16.25;100.00;100000.16;2622293;30;20535;-82
2021/08/19 05:15:15;;;;;;;3.60;1.92;;;17.50;99.90;;;16.27;100.00;100003.47;2649917;30;20322;-82
2021/08/19 05:17:46;;;;;;;3.15;1.70;;;17.60;99.90;;;16.30;100.00;100009.31;2654990;30;20586;-83
2021/08/19 05:20:17;;;;;;;2.85;1.83;;;17.60;99.90;;;16.31;100.00;99994.78;2642695;30;21303;-84
2021/08/19 05:22:45;;;;;;;2.72;2.13;;;17.60;99.90;;;16.31;100.00;100010.97;2634928;30;20203;-82
2021/08/19 05:25:15;;;;;;;3.60;2.00;;;18.00;99.90;;;16.33;100.00;99999.97;2631026;30;20233;-82
2021/08/19 05:27:46;;;;;;;3.03;1.73;;;17.70;99.90;;;16.35;100.00;100006.00;2647303;30;20572;-83
2021/08/19 05:30:15;;;;;;;2.22;1.75;;;16.80;99.90;;;16.34;100.00;100010.56;2627604;30;20206;-84
2021/08/19 05:32:47;;;;;;;1.95;1.63;;;18.70;99.90;;;16.38;100.00;100014.53;2633380;38;20210;-84
2021/08/19 05:35:15;;;;;;;2.40;1.67;;;17.80;99.90;;;16.38;100.00;100011.00;2629462;30;20861;-82
2021/08/19 05:37:44;;;;;;;1.83;1.50;;;17.80;99.90;;;16.38;100.00;100011.81;2627231;30;20246;-82
2021/08/19 05:40:49;;;;;;;2.88;1.73;;;17.80;99.90;;;16.40;100.00;100022.44;2630177;30;20453;-81
2021/08/19 05:44:03;;;;;;;4.80;1.90;;;17.90;99.90;;;16.41;100.00;100019.53;2630780;30;20686;-86
2021/08/19 05:47:16;;;;;;;1.67;1.27;;;17.20;99.90;;;16.43;100.00;100027.44;2628499;38;20199;-82
2021/08/19 05:50:33;;;;;;;2.08;1.52;;;17.90;99.90;;;16.44;100.00;100021.81;2640082;30;20820;-81
2021/08/19 05:53:47;;;;;;;2.03;1.48;;;17.90;99.90;;;16.47;100.00;100023.28;2624979;30;20423;-81
2021/08/19 05:56:25;;;;;;;2.30;1.58;;;18.00;99.90;;;16.45;100.00;100018.06;2634880;30;20250;-83
2021/08/19 05:58:54;;;;;;;2.53;2.00;;;17.90;99.90;;;16.44;100.00;100029.91;2634242;38;20191;-85
2021/08/19 06:01:23;;;;;;;1.15;0.95;;;17.80;99.90;;;16.44;100.00;100027.22;2628065;38;20786;-83
2021/08/19 06:03:52;;;;;;;2.50;2.30;;;19.00;99.90;;;16.47;100.00;100031.38;2624853;30;20229;-82
2021/08/19 06:06:23;;;;;;;5.20;1.95;;;17.90;99.90;;;16.46;100.00;100035.94;2639131;30;20545;-83
2021/08/19 06:08:52;;;;;;;2.03;1.63;;;17.90;99.90;;;16.47;100.00;100029.50;2626841;38;20403;-84
2021/08/19 06:11:21;;;;;;;1.67;1.52;;;17.90;99.90;;;16.50;100.00;100030.97;2635844;30;20218;-82
2021/08/19 06:13:50;;;;;;;1.23;1.15;;;17.90;99.90;;;16.50;100.00;100039.09;2650075;30;20655;-81
2021/08/19 06:16:19;;;;;;;1.45;1.35;;;18.00;99.90;;;16.51;100.00;100036.19;2630016;30;20206;-83
2021/08/19 06:18:48;;;;;;;2.40;1.58;;;18.80;99.90;;;16.52;100.00;100043.25;2618165;30;20238;-83
2021/08/19 06:21:17;;;;;;;2.25;1.45;;;18.00;99.90;;;16.59;100.00;100042.44;2626196;30;20202;-85
2021/08/19 06:23:48;;;;;;;2.33;1.85;;;19.00;99.90;;;16.61;100.00;100034.97;2625104;30;20555;-84
2021/08/19 06:26:18;;;;;;;1.00;0.85;;;18.10;99.90;;;16.67;100.00;100039.59;2624611;38;20794;-83
2021/08/19 06:28:47;;;;;;;2.17;1.40;;;18.10;99.90;;;16.67;100.00;100051.22;2628296;38;20199;-82
2021/08/19 06:31:15;;;;;;;3.05;1.50;;;18.10;99.90;;;16.70;100.00;100045.41;2643588;38;20236;-83
2021/08/19 06:33:44;;;;;;;1.73;1.58;;;18.40;99.90;;;16.77;100.00;100048.13;2624736;38;21324;-85
2021/08/19 06:36:13;;;;;;;1.27;1.17;;;19.10;99.90;;;16.87;100.00;100040.47;2625192;38;20628;-85
2021/08/19 06:38:42;;;;;;;2.08;1.10;;;18.30;99.90;;;16.98;100.00;100041.72;2613971;30;20214;-83
2021/08/19 06:41:13;;;;;;;2.53;1.67;;;18.30;99.90;;;17.02;100.00;100037.59;2618772;30;20229;-86
2021/08/19 06:43:42;;;;;;;1.23;1.13;;;18.40;99.90;;;17.04;100.00;100046.31;2622064;38;20203;-85
2021/08/19 06:46:11;;;;;;;3.13;1.75;;;18.50;99.90;;;17.06;100.00;100042.34;2616953;31;20226;-82
2021/08/19 06:48:40;;;;;;;2.65;1.70;;;18.60;99.90;;;17.04;100.00;100038.22;2624906;38;20230;-84
2021/08/19 06:51:09;;;;;;;4.28;1.63;;;18.60;99.90;;;16.98;100.00;100039.03;2623945;30;20230;-83
2021/08/19 06:53:38;;;;;;;2.20;1.40;;;18.40;99.90;;;17.00;100.00;100039.66;2624767;38;20948;-84
2021/08/19 06:56:07;;;;;;;1.58;1.13;;;18.70;99.90;;;17.01;100.00;100036.75;2627054;30;20193;-83
2021/08/19 06:58:39;;;;;;;1.27;1.15;;;18.70;99.90;;;17.02;100.00;100029.47;2629630;38;20549;-83
2021/08/19 07:01:08;;;;;;;2.50;1.65;;;18.70;99.90;;;17.03;100.00;100023.03;2632168;30;20607;-82
2021/08/19 07:03:37;;;;;;;1.73;1.10;;;18.70;99.90;;;17.08;100.00;100028.63;2640403;38;20565;-80
2021/08/19 07:06:06;;;;;;;3.50;1.88;;;18.80;99.90;;;17.11;100.00;100026.34;2622528;38;20471;-84
2021/08/19 07:08:35;;;;;;;2.88;1.90;;;18.80;99.90;;;17.17;100.00;100024.72;2635678;30;20686;-85
2021/08/19 07:11:04;;;;;;;2.63;1.52;;;18.80;99.90;;;17.19;100.00;100023.44;2632231;38;20385;-83
2021/08/19 07:13:33;;;;;;;2.35;1.48;;;19.90;99.90;;;17.26;100.00;100028.03;2615187;38;20553;-82
2021/08/19 07:16:05;;;;;;;2.08;1.48;;;18.90;99.90;;;17.39;100.00;100026.16;2621872;30;20545;-83
2021/08/19 07:18:34;;;;;;;2.72;1.95;;;19.00;99.90;;;17.33;100.00;100026.97;2628445;30;21419;-84
2021/08/19 07:21:03;;;;;;;2.83;1.60;;;18.80;99.90;;;17.34;100.00;100017.84;2624505;30;21362;-83
2021/08/19 07:23:32;;;;;;;2.13;1.40;;;19.10;99.90;;;17.32;100.00;100028.03;2619899;31;21081;-83
2021/08/19 07:26:01;;;;;;;1.90;1.58;;;19.10;99.90;;;17.35;100.00;100024.06;2637058;38;20861;-84
2021/08/19 07:28:30;;;;;;;2.97;1.70;;;19.20;99.90;;;17.32;100.00;100033.44;2634466;30;20500;-83
2021/08/19 07:30:59;;;;;;;2.33;1.95;;;19.20;99.90;;;17.41;100.00;100024.09;2623719;30;20424;-81
2021/08/19 07:33:31;;;;;;;2.20;1.55;;;19.20;99.90;;;17.53;100.00;100022.41;2615981;30;20572;-82
2021/08/19 07:36:00;;;;;;;1.77;1.50;;;19.20;99.90;;;17.55;100.00;100028.44;2629078;30;20246;-83
2021/08/19 07:38:28;;;;;;;2.20;1.88;;;20.10;99.90;;;17.66;100.00;100032.44;2635202;30;20735;-85
2021/08/19 07:40:57;;;;;;;2.17;1.40;;;19.40;99.90;;;17.73;100.00;100029.69;2622518;38;20257;-82
2021/08/19 07:43:26;;;;;;;3.05;1.77;;;19.40;99.90;;;17.69;100.00;100028.44;2629363;30;20234;-82
2021/08/19 07:45:57;;;;;;;2.88;2.20;;;19.50;99.90;;;17.66;100.00;100035.13;2650309;30;20877;-82
2021/08/19 07:48:26;;;;;;;2.83;2.05;;;19.60;99.90;;;17.57;100.00;100025.50;2631907;38;20206;-82
2021/08/19 07:50:58;;;;;;;3.28;2.40;;;19.60;99.90;;;17.55;100.00;100025.75;2628962;30;20240;-82
2021/08/19 07:53:28;;;;;;;2.00;1.52;;;19.60;99.90;;;17.54;100.00;100034.91;2641663;38;20252;-83
2021/08/19 07:55:57;;;;;;;4.10;1.95;;;19.60;99.90;;;17.47;100.00;100030.53;2635854;30;20183;-81
2021/08/19 07:58:26;;;;;;;3.25;2.17;;;19.60;99.90;;;17.46;100.00;100024.28;2645035;30;20245;-81
2021/08/19 08:01:31;;;;;;;2.28;1.88;;;19.50;99.90;;;17.46;100.00;100026.16;2630818;38;20812;-81
2021/08/19 08:04:44;;;;;;;1.85;1.70;;;19.50;99.90;;;17.51;100.00;100039.88;2634106;30;20612;-82
2021/08/19 08:08:01;;;;;;;3.00;2.10;;;19.50;99.90;;;17.64;100.00;100045.31;2626894;30;20478;-82
2021/08/19 08:11:14;;;;;;;2.38;2.00;;;19.50;99.90;;;17.51;100.00;100038.03;2626755;38;20548;-84
2021/08/19 08:14:27;;;;;;;3.58;2.20;;;19.50;99.90;;;17.47;100.00;100054.88;2646938;38;21058;-85
2021/08/19 08:17:40;;;;;;;1.65;1.55;;;19.50;99.90;;;17.49;100.00;100059.03;2640461;30;20529;-84
2021/08/19 08:20:57;;;;;;;3.13;1.95;;;19.50;99.90;;;17.45;100.00;100062.34;2649744;30;20382;-83
2021/08/19 08:24:14;;;;;;;1.77;1.58;;;19.50;99.90;;;17.38;100.00;100054.25;2647857;38;20586;-81
2021/08/19 08:27:27;;;;;;;1.60;1.27;;;19.40;99.90;;;17.21;100.00;100067.34;2635061;30;20948;-82
2021/08/19 08:30:42;;;;;;;3.92;2.13;;;19.40;99.90;;;17.04;100.00;100065.25;2632103;30;21501;-82
2021/08/19 08:33:57;;;;;;;1.77;1.42;;;19.30;99.90;;;17.04;100.00;100076.91;2640436;38;20618;-85
2021/08/19 08:37:12;;;;;;;2.53;2.22;;;19.20;99.90;;;17.09;100.00;100082.50;2643384;38;20500;-85
2021/08/19 08:40:32;;;;;;;3.55;2.20;;;19.20;99.90;;;17.08;100.00;100097.06;2647026;38;20231;-83
2021/08/19 08:43:47;;;;;;;2.20;1.85;;;19.20;99.90;;;17.08;100.00;100104.31;2634816;30;20186;-83
2021/08/19 08:47:04;;;;;;;2.42;2.22;;;19.20;99.90;;;17.19;100.00;100104.56;2625446;30;20234;-82
2021/08/19 08:50:18;;;;;;;2.78;2.00;;;19.20;99.90;;;17.16;100.00;100113.09;2661463;30;20207;-82
2021/08/19 08:53:32;;;;;;;2.40;2.13;;;19.30;99.90;;;17.08;100.00;100112.44;2640259;38;20202;-83
2021/08/19 08:56:48;;;;;;;5.07;2.47;;;19.90;99.90;;;17.22;100.00;100131.19;2631956;30;20783;-84
2021/08/19 09:00:02;;;;;;;2.40;2.05;;;19.30;99.90;;;17.33;100.00;100118.94;2627466;38;20811;-82
2021/08/19 09:03:18;;;;;;;3.53;1.80;;;19.30;99.90;;;17.24;100.00;100129.13;2621533;38;21106;-83
2021/08/19 09:06:44;;;;;;;4.63;1.88;;;19.80;99.90;;;17.30;100.00;100126.66;2629911;38;20668;-83
2021/08/19 09:09:57;;;;;;;2.92;2.63;;;19.40;99.90;;;17.32;100.00;100125.38;2636854;38;21212;-82
2021/08/19 09:13:16;;;;;;;2.60;1.63;;;19.40;99.90;;;17.45;100.00;100125.41;2626605;30;20210;-81
2021/08/19 09:16:50;;;;;;;3.20;2.08;;;19.40;99.90;;;17.50;100.00;100113.97;2632113;30;20202;-82
2021/08/19 09:20:16;;;;;;;2.78;2.20;;;19.50;99.90;;;17.40;100.00;100119.78;2629340;30;20649;-81
2021/08/19 09:23:31;;;;;;;3.40;2.05;;;19.80;99.90;;;17.55;100.00;100125.00;2651742;30;20649;-82
2021/08/19 09:26:55;;;;;;;2.80;1.60;;;19.60;99.90;;;17.65;100.00;100113.81;2646419;38;21292;-82
2021/08/19 09:30:12;;;;;;;2.53;1.40;;;19.80;99.90;;;17.72;100.00;100118.16;2623487;30;20423;-82
2021/08/19 09:33:28;;;;;;;2.47;1.67;;;19.60;99.90;;;17.87;100.00;100105.25;2628440;30;20592;-83
2021/08/19 09:36:42;;;;;;;3.00;1.70;;;19.70;99.90;;;18.07;100.00;100104.38;2628744;30;20568;-84
2021/08/19 09:40:08;;;;;;;1.48;1.27;;;19.80;99.90;;;18.27;100.00;100102.47;2629965;38;20636;-84
2021/08/19 09:43:23;;;;;;;2.45;1.45;;;20.30;99.90;;;18.37;100.00;100099.31;2620956;30;20223;-81
2021/08/19 09:46:54;;;;;;;5.60;1.92;;;20.20;99.90;;;18.54;100.00;100090.50;2634745;30;20578;-81
2021/08/19 09:50:14;;;;;;;3.05;1.88;;;20.40;99.90;;;18.56;100.00;100076.72;2620926;30;20249;-81
2021/08/19 09:53:52;;;;;;;3.30;1.83;;;20.60;99.90;;;18.56;100.00;100071.31;2637029;30;20472;-84
2021/08/19 09:57:10;;;;;;;1.67;1.58;;;21.30;99.90;;;18.50;100.00;100070.31;2628354;30;20230;-81
2021/08/19 10:00:36;;;;;;;2.88;1.80;;;20.80;99.90;;;18.83;100.00;100072.88;2630750;38;20432;-83
2021/08/19 10:03:53;;;;;;;2.83;1.80;;;20.90;99.90;;;19.29;100.00;100066.31;2621857;30;20814;-84
2021/08/19 10:07:07;;;;;;;5.53;1.73;;;21.10;99.90;;;19.25;100.00;100059.69;2625670;38;20223;-82
2021/08/19 10:10:21;;;;;;;3.20;2.38;;;21.50;99.80;;;19.70;100.00;100044.91;2637436;38;20338;-82
2021/08/19 10:13:36;;;;;;;2.05;1.50;;;21.60;98.70;;;20.42;100.00;100056.91;2622812;38;20842;-83
2021/08/19 10:16:51;;;;;;;1.75;1.63;;;22.00;98.50;;;19.59;100.00;100055.69;2633946;30;20512;-84
2021/08/19 10:20:09;;;;;;;3.28;1.50;;;22.30;95.40;;;19.73;100.00;100049.06;2651121;38;20226;-83
2021/08/19 10:23:26;;;;;;;1.70;1.58;;;22.50;94.70;;;19.73;100.00;100049.91;2620764;30;20214;-80
2021/08/19 10:26:48;;;;;;;2.20;1.65;;;22.60;94.50;;;19.28;100.00;100040.25;2622249;30;20749;-81
2021/08/19 10:30:08;;;;;;;1.90;1.65;;;22.40;93.90;;;18.90;100.00;100052.00;2639383;30;20752;31
2021/08/19 10:33:42;;;;;;;3.55;2.20;;;22.30;93.60;;;18.75;100.00;100047.91;2633091;38;20226;-84
2021/08/19 10:36:57;;;;;;;3.92;1.88;;;22.10;94.00;;;18.64;100.00;100052.97;2633908;30;20526;-83
2021/08/19 10:39:42;;;;;;;2.80;1.95;;;21.60;94.80;;;18.49;100.00;100055.09;2633995;38;20434;-83
2021/08/19 10:42:30;;;;;;;2.70;1.30;;;21.40;95.10;;;18.48;100.00;100056.13;2634485;30;20806;-85
2021/08/19 10:44:59;;;;;;;3.03;1.55;;;21.20;95.60;;;18.39;100.00;100053.88;2636109;30;20523;-80
2021/08/19 10:47:43;;;;;;;2.05;1.55;;;21.10;96.00;;;18.35;100.00;100058.88;2643081;30;20226;-81
2021/08/19 10:50:33;;;;;;;2.80;1.75;;;21.10;96.50;;;18.27;100.00;100068.09;2642937;30;20313;-84
2021/08/19 10:53:16;;;;;;;1.60;1.50;;;20.80;97.00;;;18.14;100.00;100064.59;2625738;30;20729;-84
2021/08/19 10:55:48;;;;;;;2.33;1.73;;;20.60;97.80;;;18.07;100.00;100067.31;2629443;30;20222;-84
2021/08/19 10:58:30;;;;;;;3.45;2.15;;;20.50;98.70;;;18.02;100.00;100066.28;2623071;38;21315;-86
2021/08/19 11:01:01;;;;;;;4.45;2.22;;;20.40;99.50;;;17.99;100.00;100074.81;2633940;30;20233;-83
2021/08/19 11:03:46;;;;;;;4.30;1.85;;;20.10;99.90;;;18.13;100.00;100081.88;2618673;30;20467;-84
2021/08/19 11:06:18;;;;;;;2.00;1.63;;;20.00;99.90;;;18.28;100.00;100083.31;2622807;30;20218;-82
2021/08/19 11:08:57;;;;;;;2.03;1.42;;;20.10;99.90;;;18.54;100.00;100070.72;2627001;30;20223;-82
2021/08/19 11:11:34;;;;;;;1.77;1.55;;;20.10;99.90;;;19.05;100.00;100072.53;2620920;30;20854;-83
2021/08/19 11:14:12;;;;;;;3.03;1.98;;;20.70;99.90;;;19.41;100.00;100063.75;2631561;38;20570;-83
2021/08/19 11:16:43;;;;;;;2.10;1.50;;;21.20;99.90;;;20.11;100.00;100062.47;2629267;30;20618;-84
2021/08/19 11:19:22;;;;;;;1.70;1.58;;;21.10;99.90;;;20.31;100.00;100056.81;2645267;30;20233;-83
2021/08/19 11:21:54;;;;;;;3.53;1.65;;;22.60;99.90;;;20.15;100.00;100041.97;2624589;30;20575;-82
2021/08/19 11:24:28;;;;;;;1.40;1.25;;;22.90;98.60;;;20.17;100.00;100039.81;2651924;30;20527;-82
2021/08/19 11:27:09;;;;;;;3.90;1.60;;;22.40;97.80;;;20.01;100.00;100045.88;2634139;38;20541;-83
2021/08/19 11:29:40;;;;;;;1.52;1.42;;;22.60;96.70;;;19.83;100.00;100045.84;2636575;30;20741;-82
2021/08/19 11:32:13;;;;;;;3.08;1.65;;;22.70;95.10;;;19.82;100.00;100055.88;2637080;30;20199;-84
2021/08/19 11:34:50;;;;;;;1.35;1.17;;;22.80;94.70;;;19.87;100.00;100058.75;2651242;30;20554;-84
2021/08/19 11:37:31;;;;;;;5.00;2.15;;;22.80;94.40;;;19.85;100.00;100052.72;2636563;38;20222;-82
2021/08/19 11:40:03;;;;;;;1.83;1.23;;;22.80;94.10;;;19.93;100.00;100051.59;2628708;30;20217;-82
2021/08/19 11:42:35;;;;;;;2.33;2.08;;;22.80;93.80;;;20.02;100.00;100061.94;2624860;38;20837;-82
2021/08/19 11:45:21;;;;;;;2.10;1.55;;;22.90;93.60;;;20.14;100.00;100063.91;2625654;38;20207;-84
2021/08/19 11:47:54;;;;;;;2.35;1.48;;;23.20;93.40;;;20.22;100.00;100055.47;2631469;38;20561;-81
2021/08/19 11:50:25;;;;;;;1.83;1.60;;;23.20;92.90;;;20.10;100.00;100049.94;2659520;30;20202;-81
2021/08/19 11:53:03;;;;;;;1.00;0.90;;;23.40;92.60;;;20.14;100.00;100058.47;2620160;38;20386;-81
2021/08/19 11:55:37;;;;;;;2.10;1.40;;;23.20;92.30;;;19.84;100.00;100061.09;2626977;30;20555;-83
2021/08/19 12:00:33;;;;;;;1.98;1.25;;;23.00;91.90;;;19.56;100.00;100072.41;2640827;30;20702;-85
2021/08/19 12:03:02;;;;;;;1.80;1.60;;;23.60;91.90;;;19.61;100.00;100075.28;2636025;30;20647;-82
2021/08/19 12:05:31;;;;;;;2.33;2.00;;;22.60;91.90;;;19.55;100.00;100082.41;2617454;38;20215;-81
2021/08/19 12:07:59;;;;;;;1.52;1.42;;;22.50;92.00;;;19.66;100.00;100076.25;2637085;38;20751;-83
2021/08/19 12:10:28;;;;;;;2.08;1.40;;;22.30;92.30;;;19.72;100.00;100080.81;2626142;30;20534;-84
2021/08/19 12:13:00;;;;;;;2.53;1.85;;;23.20;92.80;;;19.80;100.00;100074.25;2639236;38;20294;-83
2021/08/19 12:15:29;;;;;;;3.22;1.75;;;22.90;93.00;;;19.63;100.00;100081.34;2637381;30;20230;-83